createdAt,value
2018-08-25T00:01:02.678Z,11.03
2018-08-25T00:03:30.976Z,12.53
2018-08-25T00:05:59.333Z,11.60
2018-08-25T00:08:28.029Z,11.93
2018-08-25T00:10:56.674Z,12.57
2018-08-25T00:13:24.875Z,11.70
2018-08-25T00:15:52.941Z,12.57
2018-08-25T00:18:20.927Z,11.07
2018-08-25T00:20:48.944Z,11.30
2018-08-25T00:23:16.885Z,11.50
2018-08-25T00:25:44.813Z,12.17
2018-08-25T00:28:12.807Z,13.13
2018-08-25T00:30:46.349Z,12.00
2018-08-25T00:33:14.336Z,10.70
2018-08-25T00:35:42.295Z,11.77
2018-08-25T00:38:10.268Z,11.67
2018-08-25T00:40:38.342Z,12.00
2018-08-25T00:43:06.572Z,11.33
2018-08-25T00:45:34.963Z,12.10
2018-08-25T00:48:03.266Z,12.70
2018-08-25T00:50:31.542Z,12.00
2018-08-25T00:52:59.939Z,12.77
2018-08-25T00:55:28.638Z,13.07
2018-08-25T00:57:57.000Z,12.70
2018-08-25T01:00:25.380Z,12.33
2018-08-25T01:02:53.535Z,12.30
2018-08-25T01:05:22.495Z,11.67
2018-08-25T01:07:50.470Z,13.00
2018-08-25T01:10:18.456Z,12.70
2018-08-25T01:12:46.439Z,12.97
2018-08-25T01:15:14.384Z,13.77
2018-08-25T01:17:42.314Z,12.20
2018-08-25T01:20:10.327Z,12.43
2018-08-25T01:22:38.517Z,10.97
2018-08-25T01:25:06.758Z,12.97
2018-08-25T01:27:35.317Z,12.97
2018-08-25T01:30:03.706Z,11.33
2018-08-25T01:32:31.925Z,11.97
2018-08-25T01:35:00.218Z,11.97
2018-08-25T01:37:28.988Z,13.70
2018-08-25T01:39:57.296Z,13.93
2018-08-25T01:42:25.872Z,12.77
2018-08-25T01:44:54.008Z,13.10
2018-08-25T01:47:21.968Z,13.53
2018-08-25T01:49:49.921Z,12.37
2018-08-25T01:52:17.895Z,13.60
2018-08-25T01:54:45.837Z,13.67
2018-08-25T01:57:13.782Z,13.50
2018-08-25T01:59:41.813Z,13.30
2018-08-25T02:02:10.116Z,13.27
2018-08-25T02:04:38.201Z,12.00
2018-08-25T02:07:06.531Z,12.23
2018-08-25T02:09:34.676Z,12.53
2018-08-25T02:12:03.153Z,10.93
2018-08-25T02:14:31.519Z,11.97
2018-08-25T02:16:59.935Z,12.83
2018-08-25T02:19:28.644Z,13.43
2018-08-25T02:21:56.865Z,11.60
2018-08-25T02:24:25.343Z,12.37
2018-08-25T02:26:53.320Z,11.00
2018-08-25T02:29:21.336Z,12.33
2018-08-25T02:31:49.335Z,11.17
2018-08-25T02:34:17.235Z,11.40
2018-08-25T02:36:45.185Z,12.17
2018-08-25T02:39:14.065Z,10.70
2018-08-25T02:41:43.423Z,12.70
2018-08-25T02:44:11.636Z,11.87
2018-08-25T02:46:39.566Z,12.07
2018-08-25T02:49:07.700Z,11.97
2018-08-25T02:51:36.008Z,12.10
2018-08-25T02:54:04.199Z,11.33
2018-08-25T02:56:32.545Z,10.10
2018-08-25T02:59:00.732Z,11.93
2018-08-25T03:01:29.387Z,12.40
2018-08-25T03:03:57.784Z,11.60
2018-08-25T03:06:26.401Z,11.00
2018-08-25T03:08:54.705Z,10.53
2018-08-25T03:11:23.583Z,11.90
2018-08-25T03:13:51.624Z,11.20
2018-08-25T03:16:19.524Z,9.83
2018-08-25T03:18:47.493Z,10.87
2018-08-25T03:21:15.442Z,9.40
2018-08-25T03:23:43.396Z,10.53
2018-08-25T03:26:11.437Z,10.63
2018-08-25T03:28:39.757Z,11.57
2018-08-25T03:31:07.901Z,10.50
2018-08-25T03:33:36.143Z,11.20
2018-08-25T03:36:04.419Z,10.73
2018-08-25T03:38:32.848Z,11.50
2018-08-25T03:41:01.363Z,11.50
2018-08-25T03:43:29.805Z,10.33
2018-08-25T03:45:58.534Z,10.07
2018-08-25T03:48:27.590Z,10.97
2018-08-25T03:50:55.928Z,10.80
2018-08-25T03:53:24.317Z,11.50
2018-08-25T03:55:52.952Z,11.57
2018-08-25T03:58:20.918Z,10.57
2018-08-25T04:00:48.881Z,11.30
2018-08-25T04:03:16.844Z,9.43
2018-08-25T04:05:44.807Z,10.43
2018-08-25T04:08:12.801Z,11.23
2018-08-25T04:10:40.782Z,12.67
2018-08-25T04:13:09.211Z,10.50
2018-08-25T04:15:37.522Z,11.77
2018-08-25T04:18:05.816Z,10.37
2018-08-25T04:20:34.120Z,10.10
2018-08-25T04:23:03.212Z,9.47
2018-08-25T04:25:31.425Z,10.93
2018-08-25T04:27:59.755Z,9.20
2018-08-25T04:30:28.213Z,7.70
2018-08-25T04:32:56.952Z,9.63
2018-08-25T04:35:25.755Z,9.80
2018-08-25T04:37:53.952Z,8.10
2018-08-25T04:40:22.712Z,9.17
2018-08-25T04:42:50.648Z,9.40
2018-08-25T04:45:18.618Z,7.73
2018-08-25T04:47:46.606Z,9.23
2018-08-25T04:50:14.517Z,8.30
2018-08-25T04:52:42.509Z,8.83
2018-08-25T04:55:10.512Z,8.50
2018-08-25T04:57:38.636Z,8.60
2018-08-25T05:00:07.090Z,9.80
2018-08-25T05:02:35.417Z,9.00
2018-08-25T05:05:03.865Z,8.43
2018-08-25T05:07:32.228Z,8.37
2018-08-25T05:10:00.514Z,8.33
2018-08-25T05:12:28.952Z,9.30
2018-08-25T05:14:57.315Z,6.63
2018-08-25T05:17:25.863Z,7.87
2018-08-25T05:19:53.862Z,7.90
2018-08-25T05:22:21.816Z,7.57
2018-08-25T05:24:49.747Z,7.87
2018-08-25T05:27:17.716Z,7.00
2018-08-25T05:29:45.669Z,9.00
2018-08-25T05:32:13.597Z,8.73
2018-08-25T05:34:41.583Z,9.23
2018-08-25T05:37:09.660Z,8.33
2018-08-25T05:39:37.829Z,8.43
2018-08-25T05:42:06.468Z,7.73
2018-08-25T05:44:35.800Z,8.40
2018-08-25T05:47:05.202Z,7.73
2018-08-25T05:49:33.650Z,7.70
2018-08-25T05:52:02.052Z,7.70
2018-08-25T05:54:31.087Z,8.60
2018-08-25T05:56:59.451Z,7.80
2018-08-25T05:59:28.247Z,8.30
2018-08-25T06:01:56.818Z,8.20
2018-08-25T06:04:25.816Z,7.23
2018-08-25T06:06:53.908Z,8.53
2018-08-25T06:09:21.869Z,7.40
2018-08-25T06:11:50.587Z,7.30
2018-08-25T06:14:18.555Z,8.40
2018-08-25T06:16:46.582Z,7.10
2018-08-25T06:19:14.609Z,7.53
2018-08-25T06:21:42.538Z,8.27
2018-08-25T06:24:10.582Z,8.27
2018-08-25T06:26:38.965Z,6.90
2018-08-25T06:29:07.582Z,8.33
2018-08-25T06:31:36.326Z,7.73
2018-08-25T06:34:04.877Z,8.20
2018-08-25T06:36:33.452Z,7.40
2018-08-25T06:39:02.000Z,7.50
2018-08-25T06:41:30.486Z,7.63
2018-08-25T06:43:59.475Z,8.17
2018-08-25T06:46:28.932Z,8.10
2018-08-25T06:48:58.309Z,7.60
2018-08-25T06:51:27.131Z,6.87
2018-08-25T06:53:55.645Z,7.67
2018-08-25T06:56:23.703Z,7.00
2018-08-25T06:58:51.698Z,7.87
2018-08-25T07:01:19.668Z,6.97
2018-08-25T07:03:47.616Z,10.37
2018-08-25T07:06:15.601Z,6.43
2018-08-25T07:08:43.663Z,6.27
2018-08-25T07:11:11.649Z,8.67
2018-08-25T07:13:39.936Z,7.53
2018-08-25T07:16:08.434Z,6.43
2018-08-25T07:18:37.125Z,6.80
2018-08-25T07:21:05.803Z,8.10
2018-08-25T07:23:34.422Z,7.70
2018-08-25T07:26:02.992Z,6.27
2018-08-25T07:28:31.688Z,5.87
2018-08-25T07:31:01.841Z,7.07
2018-08-25T07:33:30.805Z,7.67
2018-08-25T07:36:02.517Z,7.10
2018-08-25T07:38:31.380Z,7.40
2018-08-25T07:41:01.204Z,5.90
2018-08-25T07:43:30.396Z,6.93
2018-08-25T07:46:00.095Z,6.60
2018-08-25T07:48:28.992Z,7.13
2018-08-25T07:51:00.497Z,6.43
2018-08-25T07:53:30.232Z,6.07
2018-08-25T07:56:00.488Z,6.53
2018-08-25T07:58:29.607Z,7.50
2018-08-25T08:01:00.258Z,6.83
2018-08-25T08:03:30.718Z,7.20
2018-08-25T08:06:00.936Z,6.13
2018-08-25T08:08:29.766Z,5.43
2018-08-25T08:10:59.126Z,5.37
2018-08-25T08:13:28.333Z,5.77
2018-08-25T08:15:59.844Z,5.97
2018-08-25T08:18:30.352Z,6.00
2018-08-25T08:21:00.138Z,6.90
2018-08-25T08:23:29.196Z,5.80
2018-08-25T08:25:58.958Z,7.67
2018-08-25T08:28:29.293Z,7.60
2018-08-25T08:30:59.216Z,6.50
2018-08-25T08:33:34.895Z,6.80
2018-08-25T08:36:03.931Z,7.03
2018-08-25T08:38:35.415Z,5.77
2018-08-25T08:41:04.255Z,5.67
2018-08-25T08:43:33.047Z,6.40
2018-08-25T08:46:02.021Z,6.47
2018-08-25T08:48:30.970Z,4.70
2018-08-25T08:51:00.264Z,4.73
2018-08-25T08:53:30.326Z,4.87
2018-08-25T08:56:00.149Z,5.30
2018-08-25T08:58:28.923Z,5.93
2018-08-25T09:00:58.154Z,4.20
2018-08-25T09:03:27.459Z,5.47
2018-08-25T09:05:56.794Z,4.80
2018-08-25T09:08:25.575Z,5.13
2018-08-25T09:10:53.903Z,4.30
2018-08-25T09:13:22.800Z,3.93
2018-08-25T09:15:50.989Z,4.30
2018-08-25T09:18:19.866Z,4.67
2018-08-25T09:20:47.851Z,4.50
2018-08-25T09:23:15.829Z,4.73
2018-08-25T09:25:43.872Z,3.60
2018-08-25T09:28:12.246Z,4.67
2018-08-25T09:30:40.267Z,3.60
2018-08-25T09:33:08.853Z,4.40
2018-08-25T09:35:37.371Z,3.30
2018-08-25T09:38:06.254Z,3.83
2018-08-25T09:40:34.993Z,4.07
2018-08-25T09:43:03.741Z,3.70
2018-08-25T09:45:32.207Z,4.50
2018-08-25T09:48:00.791Z,4.17
2018-08-25T09:50:29.643Z,5.07
2018-08-25T09:52:58.486Z,4.30
2018-08-25T09:55:27.764Z,2.90
2018-08-25T09:57:56.198Z,2.87
2018-08-25T10:00:24.543Z,3.17
2018-08-25T10:02:52.588Z,3.47
2018-08-25T10:05:20.851Z,2.90
2018-08-25T10:07:49.439Z,3.90
2018-08-25T10:10:19.696Z,3.50
2018-08-25T10:12:52.190Z,3.90
2018-08-25T10:15:20.394Z,4.03
2018-08-25T10:17:48.332Z,3.17
2018-08-25T10:20:16.284Z,3.40
2018-08-25T10:22:44.242Z,3.70
2018-08-25T10:25:12.593Z,4.20
2018-08-25T10:27:41.245Z,4.10
2018-08-25T10:30:10.282Z,4.10
2018-08-25T10:32:39.451Z,4.30
2018-08-25T10:35:08.974Z,3.70
2018-08-25T10:37:37.395Z,4.10
2018-08-25T10:40:06.890Z,4.77
2018-08-25T10:42:35.737Z,3.73
2018-08-25T10:45:04.882Z,3.80
2018-08-25T10:47:34.514Z,3.37
2018-08-25T10:50:02.815Z,3.80
2018-08-25T10:52:32.602Z,4.63
2018-08-25T10:55:02.453Z,4.10
2018-08-25T10:57:31.601Z,3.47
2018-08-25T11:00:01.179Z,2.70
2018-08-25T11:02:30.595Z,4.10
2018-08-25T11:05:00.341Z,4.20
2018-08-25T11:07:29.742Z,3.43
2018-08-25T11:09:58.922Z,4.20
2018-08-25T11:12:28.017Z,3.77
2018-08-25T11:14:56.863Z,3.83
2018-08-25T11:17:26.535Z,3.73
2018-08-25T11:19:54.981Z,4.37
2018-08-25T11:22:23.026Z,3.30
2018-08-25T11:24:51.004Z,3.53
2018-08-25T11:27:19.185Z,3.47
2018-08-25T11:29:48.266Z,4.07
2018-08-25T11:32:16.275Z,3.57
2018-08-25T11:34:44.358Z,4.03
2018-08-25T11:37:12.450Z,3.50
2018-08-25T11:39:40.472Z,4.30
2018-08-25T11:42:08.981Z,4.60
2018-08-25T11:44:37.426Z,3.80
2018-08-25T11:47:11.328Z,4.30
2018-08-25T11:49:47.254Z,3.77
2018-08-25T11:52:16.350Z,4.60
2018-08-25T11:54:45.460Z,4.80
2018-08-25T11:57:13.706Z,4.87
2018-08-25T11:59:42.239Z,4.80
2018-08-25T12:02:10.821Z,5.27
2018-08-25T12:04:39.162Z,5.27
2018-08-25T12:07:07.701Z,3.87
2018-08-25T12:09:36.127Z,4.00
2018-08-25T12:12:04.353Z,4.20
2018-08-25T12:14:32.601Z,4.20
2018-08-25T12:17:00.999Z,4.30
2018-08-25T12:19:29.342Z,3.53
2018-08-25T12:21:58.129Z,4.20
2018-08-25T12:24:26.675Z,3.23
2018-08-25T12:26:56.836Z,3.40
2018-08-25T12:29:24.968Z,4.40
2018-08-25T12:31:53.184Z,3.50
2018-08-25T12:34:21.273Z,3.97
2018-08-25T12:36:49.266Z,5.77
2018-08-25T12:39:17.249Z,4.90
2018-08-25T12:41:45.252Z,5.10
2018-08-25T12:44:13.212Z,5.07
2018-08-25T12:46:41.160Z,5.13
2018-08-25T12:49:09.200Z,5.53
2018-08-25T12:51:37.578Z,4.70
2018-08-25T12:54:06.965Z,4.10
2018-08-25T12:56:35.322Z,4.53
2018-08-25T12:59:03.651Z,5.00
2018-08-25T13:01:31.952Z,5.50
2018-08-25T13:04:00.269Z,4.80
2018-08-25T13:06:29.864Z,5.20
2018-08-25T13:08:58.464Z,4.77
2018-08-25T13:11:27.056Z,5.37
2018-08-25T13:13:55.568Z,5.73
2018-08-25T13:16:24.177Z,4.40
2018-08-25T13:18:53.415Z,4.63
2018-08-25T13:21:21.352Z,4.50
2018-08-25T13:23:49.280Z,5.40
2018-08-25T13:26:17.224Z,5.00
2018-08-25T13:28:45.179Z,4.20
2018-08-25T13:31:13.189Z,5.93
2018-08-25T13:33:41.161Z,5.33
2018-08-25T13:36:09.417Z,6.67
2018-08-25T13:38:37.688Z,6.40
2018-08-25T13:41:06.447Z,5.17
2018-08-25T13:43:35.059Z,5.00
2018-08-25T13:46:03.405Z,6.30
2018-08-25T13:48:32.065Z,6.33
2018-08-25T13:51:01.033Z,6.60
2018-08-25T13:53:29.946Z,5.60
2018-08-25T13:55:59.867Z,5.33
2018-08-25T13:58:29.860Z,5.13
2018-08-25T14:00:59.252Z,6.63
2018-08-25T14:03:28.287Z,5.33
2018-08-25T14:05:57.464Z,5.73
2018-08-25T14:08:26.721Z,6.70
2018-08-25T14:10:55.115Z,8.07
2018-08-25T14:13:23.305Z,5.67
2018-08-25T14:15:51.404Z,5.97
2018-08-25T14:18:19.343Z,6.43
2018-08-25T14:20:47.315Z,5.50
2018-08-25T14:23:15.349Z,5.47
2018-08-25T14:25:43.473Z,5.63
2018-08-25T14:28:12.143Z,5.27
2018-08-25T14:30:40.350Z,4.83
2018-08-25T14:33:08.691Z,4.50
2018-08-25T14:35:37.487Z,3.40
2018-08-25T14:38:06.149Z,4.80
2018-08-25T14:40:35.740Z,4.23
2018-08-25T14:43:04.904Z,4.60
2018-08-25T14:45:33.788Z,4.77
2018-08-25T14:48:02.166Z,4.43
2018-08-25T14:50:30.751Z,3.77
2018-08-25T14:52:59.515Z,4.33
2018-08-25T14:55:28.141Z,4.37
2018-08-25T14:57:57.504Z,3.07
2018-08-25T15:00:25.679Z,3.70
2018-08-25T15:02:53.655Z,3.60
2018-08-25T15:05:21.589Z,4.13
2018-08-25T15:07:49.534Z,3.67
2018-08-25T15:10:17.454Z,4.50
2018-08-25T15:12:45.385Z,3.87
2018-08-25T15:15:13.373Z,3.80
2018-08-25T15:17:41.288Z,3.93
2018-08-25T15:20:09.230Z,4.60
2018-08-25T15:22:37.213Z,3.77
2018-08-25T15:25:05.237Z,3.87
2018-08-25T15:27:33.480Z,4.17
2018-08-25T15:30:01.508Z,3.33
2018-08-25T15:32:29.774Z,3.63
2018-08-25T15:34:57.925Z,3.67
2018-08-25T15:37:26.572Z,4.43
2018-08-25T15:39:54.657Z,4.30
2018-08-25T15:42:22.595Z,4.07
2018-08-25T15:44:50.561Z,4.20
2018-08-25T15:47:19.137Z,3.43
2018-08-25T15:49:47.114Z,3.00
2018-08-25T15:52:15.135Z,3.70
2018-08-25T15:54:43.075Z,3.43
2018-08-25T15:57:11.035Z,4.00
2018-08-25T15:59:39.029Z,3.00
2018-08-25T16:02:07.187Z,3.70
2018-08-25T16:04:35.253Z,3.23
2018-08-25T16:07:03.580Z,4.10
2018-08-25T16:09:32.005Z,3.27
2018-08-25T16:12:00.216Z,3.80
2018-08-25T16:14:28.869Z,4.30
2018-08-25T16:17:04.284Z,3.03
2018-08-25T16:19:32.703Z,2.80
2018-08-25T16:22:00.905Z,3.40
2018-08-25T16:24:29.309Z,3.10
2018-08-25T16:26:57.634Z,4.70
2018-08-25T16:29:25.675Z,3.97
2018-08-25T16:31:53.736Z,4.10
2018-08-25T16:34:21.790Z,3.30
2018-08-25T16:36:49.877Z,3.37
2018-08-25T16:39:17.835Z,4.20
2018-08-25T16:41:45.841Z,4.30
2018-08-25T16:44:13.841Z,4.27
2018-08-25T16:46:42.073Z,3.93
2018-08-25T16:49:10.038Z,3.40
2018-08-25T16:51:38.034Z,4.20
2018-08-25T16:54:06.199Z,3.77
2018-08-25T16:56:34.411Z,3.93
2018-08-25T16:59:02.568Z,3.50
2018-08-25T17:01:30.917Z,4.87
2018-08-25T17:03:59.241Z,4.20
2018-08-25T17:06:27.741Z,3.50
2018-08-25T17:08:56.115Z,5.20
2018-08-25T17:11:24.301Z,5.03
2018-08-25T17:13:52.402Z,5.20
2018-08-25T17:16:20.624Z,4.73
2018-08-25T17:18:48.563Z,4.30
2018-08-25T17:21:16.491Z,5.60
2018-08-25T17:23:44.494Z,5.03
2018-08-25T17:26:12.888Z,4.87
2018-08-25T17:28:40.945Z,4.27
2018-08-25T17:31:09.063Z,5.60
2018-08-25T17:33:37.265Z,5.30
2018-08-25T17:36:05.592Z,5.07
2018-08-25T17:38:33.918Z,5.50
2018-08-25T17:41:01.969Z,4.30
2018-08-25T17:43:30.180Z,4.27
2018-08-25T17:45:58.784Z,4.37
2018-08-25T17:48:26.899Z,4.50
2018-08-25T17:50:54.949Z,5.60
2018-08-25T17:53:22.963Z,5.53
2018-08-25T17:55:51.789Z,4.93
2018-08-25T17:58:19.801Z,5.00
2018-08-25T18:00:48.447Z,5.73
2018-08-25T18:03:16.380Z,5.80
2018-08-25T18:05:45.000Z,5.60
2018-08-25T18:08:12.920Z,5.10
2018-08-25T18:10:40.863Z,4.97
2018-08-25T18:13:08.796Z,4.63
2018-08-25T18:15:36.878Z,4.83
2018-08-25T18:18:04.937Z,4.47
2018-08-25T18:20:33.004Z,5.13
2018-08-25T18:23:01.075Z,5.00
2018-08-25T18:25:29.417Z,3.90
2018-08-25T18:27:57.714Z,3.60
2018-08-25T18:30:25.934Z,4.40
2018-08-25T18:32:54.026Z,4.57
2018-08-25T18:35:22.222Z,4.10
2018-08-25T18:37:50.220Z,4.13
2018-08-25T18:40:18.158Z,4.30
2018-08-25T18:42:46.132Z,4.10
2018-08-25T18:45:14.109Z,4.17
2018-08-25T18:47:42.072Z,4.50
2018-08-25T18:50:11.543Z,5.20
2018-08-25T18:52:39.789Z,4.40
2018-08-25T18:55:08.008Z,3.50
2018-08-25T18:57:36.064Z,4.30
2018-08-25T19:00:04.412Z,3.77
2018-08-25T19:02:32.517Z,3.70
2018-08-25T19:05:00.794Z,3.80
2018-08-25T19:07:29.374Z,3.70
2018-08-25T19:09:58.012Z,3.17
2018-08-25T19:12:26.310Z,3.23
2018-08-25T19:14:54.371Z,4.37
2018-08-25T19:17:22.317Z,3.30
2018-08-25T19:19:50.264Z,3.37
2018-08-25T19:22:18.314Z,3.90
2018-08-25T19:24:46.280Z,3.70
2018-08-25T19:27:14.209Z,3.13
2018-08-25T19:29:42.225Z,3.20
2018-08-25T19:32:10.121Z,2.97
2018-08-25T19:34:38.076Z,4.40
2018-08-25T19:37:06.330Z,3.60
2018-08-25T19:39:34.350Z,3.33
2018-08-25T19:42:02.519Z,3.03
2018-08-25T19:44:30.743Z,3.30
2018-08-25T19:46:59.136Z,4.07
2018-08-25T19:49:27.577Z,3.07
2018-08-25T19:51:55.771Z,4.07
2018-08-25T19:54:23.984Z,4.07
2018-08-25T19:56:52.201Z,3.70
2018-08-25T19:59:20.151Z,4.90
2018-08-25T20:01:48.074Z,4.20
2018-08-25T20:04:16.637Z,3.57
2018-08-25T20:06:44.564Z,3.00
2018-08-25T20:09:12.498Z,3.60
2018-08-25T20:11:40.432Z,3.40
2018-08-25T20:14:08.877Z,3.23
2018-08-25T20:16:36.894Z,2.70
2018-08-25T20:19:04.999Z,3.17
2018-08-25T20:21:33.550Z,3.20
2018-08-25T20:24:01.600Z,2.57
2018-08-25T20:26:29.795Z,4.27
2018-08-25T20:28:57.871Z,3.20
2018-08-25T20:31:32.496Z,3.00
2018-08-25T20:34:00.747Z,3.40
2018-08-25T20:36:28.976Z,3.43
2018-08-25T20:38:57.829Z,3.80
2018-08-25T20:41:26.265Z,3.43
2018-08-25T20:43:54.995Z,4.00
2018-08-25T20:46:23.069Z,4.63
2018-08-25T20:48:51.029Z,3.57
2018-08-25T20:51:18.976Z,3.93
2018-08-25T20:53:46.928Z,3.50
2018-08-25T20:56:15.172Z,3.67
2018-08-25T20:58:43.098Z,3.87
2018-08-25T21:01:11.034Z,4.70
2018-08-25T21:03:39.029Z,3.40
2018-08-25T21:06:07.060Z,2.13
2018-08-25T21:08:35.198Z,2.23
2018-08-25T21:11:03.438Z,1.63
2018-08-25T21:13:31.831Z,2.07
2018-08-25T21:16:00.115Z,2.40
2018-08-25T21:18:28.309Z,2.00
2018-08-25T21:20:56.671Z,2.27
2018-08-25T21:23:24.828Z,2.60
2018-08-25T21:25:52.890Z,2.00
2018-08-25T21:28:20.903Z,2.60
2018-08-25T21:30:48.925Z,2.37
2018-08-25T21:33:16.972Z,2.07
2018-08-25T21:35:44.968Z,2.30
2018-08-25T21:38:12.988Z,2.20
2018-08-25T21:40:41.070Z,2.07
2018-08-25T21:43:09.622Z,2.00
2018-08-25T21:45:37.868Z,1.90
2018-08-25T21:48:06.278Z,1.63
2018-08-25T21:50:34.686Z,2.10
2018-08-25T21:53:03.207Z,2.20
2018-08-25T21:55:31.825Z,1.70
2018-08-25T21:58:00.495Z,2.40
2018-08-25T22:00:29.237Z,2.00
2018-08-25T22:02:58.266Z,1.60
2018-08-25T22:05:27.491Z,2.00
2018-08-25T22:07:56.373Z,2.10
2018-08-25T22:10:24.379Z,2.27
2018-08-25T22:12:54.171Z,1.83
2018-08-25T22:15:23.656Z,2.10
2018-08-25T22:17:51.631Z,1.70
2018-08-25T22:20:19.864Z,1.93
2018-08-25T22:22:47.821Z,1.83
2018-08-25T22:25:15.880Z,2.03
2018-08-25T22:27:44.195Z,1.90
2018-08-25T22:30:13.702Z,2.37
2018-08-25T22:32:41.960Z,2.50
2018-08-25T22:35:09.948Z,1.80
2018-08-25T22:37:38.024Z,2.30
2018-08-25T22:40:06.629Z,2.27
2018-08-25T22:42:34.857Z,3.00
2018-08-25T22:45:03.041Z,3.20
2018-08-25T22:47:31.361Z,3.10
2018-08-25T22:49:59.664Z,3.10
2018-08-25T22:52:32.963Z,3.20
2018-08-25T22:55:01.014Z,3.47
2018-08-25T22:57:29.297Z,3.23
2018-08-25T22:59:58.000Z,3.47
2018-08-25T23:02:31.070Z,3.83
2018-08-25T23:04:59.790Z,3.50
2018-08-25T23:07:29.667Z,3.50
2018-08-25T23:10:01.756Z,4.70
2018-08-25T23:12:31.384Z,4.07
2018-08-25T23:15:01.574Z,2.90
2018-08-25T23:17:31.528Z,3.67
2018-08-25T23:20:01.527Z,3.30
2018-08-25T23:22:30.224Z,3.60
2018-08-25T23:24:58.626Z,4.43
2018-08-25T23:27:27.337Z,3.93
2018-08-25T23:29:55.554Z,4.53
2018-08-25T23:32:23.911Z,4.20
2018-08-25T23:34:52.178Z,4.03
2018-08-25T23:37:20.382Z,3.97
2018-08-25T23:39:48.286Z,5.03
2018-08-25T23:42:16.237Z,4.90
2018-08-25T23:44:44.173Z,3.87
2018-08-25T23:47:12.125Z,4.30
2018-08-25T23:49:40.059Z,4.50
2018-08-25T23:52:08.273Z,4.10
2018-08-25T23:54:36.419Z,3.50
2018-08-25T23:57:04.637Z,3.87
2018-08-25T23:59:32.945Z,4.13
